Gardar, North Dakota
Current Conditions -  °F | °C
As of 2:35 PM on Tuesday 25 Nov 2014 (Local Time) from K2C8 Reporting Station
Broken Clouds Broken Clouds  
Wind Chill:   Ceiling: 2000
Heat Index: 18°   Visibility: 10mi
Dew Point: 10°   Wind: 6mph
Humidity: 73%   Direction: 30°NNE
Pressure: 29.96"   Gusts: NA
Location:  48.4822°N, 97.9139°W
Report Text: K2C8 252035Z AUTO 03005KT 10SM BKN020 BKN033 M08/M12 A2996 RMK AO2
Loading
Personal Weather Stations






























Interactive Weather Map New forecast layout! Learn more

10-Day Weather Forecast

Advertisements
Track Severe Weather on mobile